Time;durP1;ratioP1;P1;durP2;ratioP2;P2;SDS_P1;SDS_P2;PMS_P1;PMS_P2;Temp;Humidity;BMP_temperature;BMP_pressure;BME280_temperature;BME280_humidity;BME280_pressure;Samples;Min_cycle;Max_cycle;Signal;HPM_P1;HPM_P2
2022/02/17 00:01:15;;;;;;;7.57;4.38;;;9.20;96.70;;;;;;5064732;28;20051;-87
2022/02/17 00:03:43;;;;;;;7.53;4.45;;;9.20;96.70;;;;;;5066567;28;20037;-86
2022/02/17 00:06:14;;;;;;;7.75;4.75;;;9.20;96.70;;;;;;5045225;28;20045;-86
2022/02/17 00:08:44;;;;;;;8.52;5.43;;;9.10;96.70;;;;;;5045021;28;20044;-85
2022/02/17 00:11:13;;;;;;;7.97;5.32;;;9.10;96.70;;;;;;5063196;28;20037;-87
2022/02/17 00:13:42;;;;;;;9.80;5.82;;;9.20;96.70;;;;;;5062935;28;20623;-86
2022/02/17 00:16:10;;;;;;;6.93;5.25;;;9.20;96.70;;;;;;5048590;28;20055;-87
2022/02/17 00:18:39;;;;;;;6.22;4.70;;;9.20;96.70;;;;;;5050949;28;20090;-86
2022/02/17 00:21:07;;;;;;;8.05;5.07;;;9.30;96.70;;;;;;5062718;28;20067;-86
2022/02/17 00:23:35;;;;;;;7.45;5.90;;;9.20;96.70;;;;;;5064107;28;20537;-86
2022/02/17 00:26:06;;;;;;;8.07;5.45;;;9.30;96.70;;;;;;5046428;28;20045;-86
2022/02/17 00:28:34;;;;;;;6.53;5.00;;;9.30;96.70;;;;;;5060611;28;20053;-86
2022/02/17 00:31:05;;;;;;;8.02;5.32;;;9.20;96.70;;;;;;5044127;28;20040;-86
2022/02/17 00:33:38;;;;;;;6.72;4.90;;;9.30;96.70;;;;;;5047274;28;20120;-86
2022/02/17 00:36:09;;;;;;;7.95;5.10;;;9.30;96.70;;;;;;5049112;28;20094;-87
2022/02/17 00:38:37;;;;;;;9.75;5.10;;;9.30;96.70;;;;;;5061547;28;20498;-86
2022/02/17 00:41:07;;;;;;;7.95;5.25;;;9.30;96.70;;;;;;5049218;28;20485;-87
2022/02/17 00:43:36;;;;;;;11.50;6.22;;;9.40;96.70;;;;;;5047595;28;20462;-84
2022/02/17 00:46:06;;;;;;;5.90;5.25;;;9.40;96.70;;;;;;5064073;28;20066;-84
2022/02/17 00:48:34;;;;;;;7.03;4.75;;;9.40;96.70;;;;;;5064509;28;20529;-84
2022/02/17 00:51:03;;;;;;;7.13;4.60;;;9.30;96.70;;;;;;5064932;28;23199;-85
2022/02/17 00:53:32;;;;;;;6.78;4.80;;;9.30;96.70;;;;;;5064117;28;20119;-83
2022/02/17 00:56:00;;;;;;;7.13;4.72;;;9.30;96.70;;;;;;5064237;28;20036;-84
2022/02/17 00:58:31;;;;;;;7.97;5.20;;;9.20;96.70;;;;;;5062317;28;20048;-85
2022/02/17 01:00:59;;;;;;;8.35;5.10;;;9.20;96.70;;;;;;5048453;28;20036;-83
2022/02/17 01:03:28;;;;;;;7.30;4.60;;;9.20;96.70;;;;;;5064213;28;20060;-83
2022/02/17 01:05:56;;;;;;;6.72;5.07;;;9.30;96.70;;;;;;5064329;28;20044;-83
2022/02/17 01:08:25;;;;;;;8.10;5.60;;;9.30;96.70;;;;;;5047483;28;20075;-84
2022/02/17 01:10:54;;;;;;;5.90;4.78;;;9.20;96.70;;;;;;5063664;28;20053;-84
2022/02/17 01:13:25;;;;;;;7.78;5.88;;;9.20;96.70;;;;;;5060689;28;20544;-83
2022/02/17 01:15:54;;;;;;;8.95;5.43;;;9.20;96.70;;;;;;5064618;28;20053;-83
2022/02/17 01:18:23;;;;;;;7.93;5.40;;;9.20;96.70;;;;;;5062259;28;20486;-84
2022/02/17 01:20:52;;;;;;;9.02;5.40;;;9.20;96.70;;;;;;5065194;28;20094;-83
2022/02/17 01:23:21;;;;;;;8.23;6.00;;;9.20;96.70;;;;;;5046403;28;20044;-83
2022/02/17 01:25:54;;;;;;;7.45;6.47;;;9.20;96.70;;;;;;5062658;28;20055;-84
2022/02/17 01:28:23;;;;;;;8.65;6.07;;;9.20;96.70;;;;;;5048360;28;20048;-84
2022/02/17 01:30:54;;;;;;;7.65;6.20;;;9.20;96.70;;;;;;5047356;28;20048;-83
2022/02/17 01:33:23;;;;;;;9.90;6.50;;;9.20;96.70;;;;;;5045909;28;20110;-83
2022/02/17 01:36:06;;;;;;;11.57;6.95;;;9.20;96.70;;;;;;5046513;28;20053;-84
2022/02/17 01:38:40;;;;;;;7.88;6.50;;;9.20;96.70;;;;;;5058453;28;20510;-84
2022/02/17 01:41:09;;;;;;;9.30;6.22;;;9.20;96.70;;;;;;5040492;28;20167;-83
2022/02/17 01:43:39;;;;;;;8.18;6.35;;;9.20;96.70;;;;;;5056033;28;20045;-86
2022/02/17 01:46:10;;;;;;;8.20;6.88;;;9.20;96.70;;;;;;5070366;28;20109;-86
2022/02/17 01:48:38;;;;;;;8.20;6.97;;;9.20;96.70;;;;;;5062424;28;20563;-86
2022/02/17 01:51:06;;;;;;;8.38;6.50;;;9.20;96.70;;;;;;5062873;28;20068;-85
2022/02/17 01:53:35;;;;;;;9.27;6.75;;;9.30;96.70;;;;;;5064363;28;20036;-86
2022/02/17 01:56:03;;;;;;;8.48;6.43;;;9.30;96.70;;;;;;5061938;28;20356;-85
2022/02/17 01:58:33;;;;;;;8.77;6.50;;;9.30;96.70;;;;;;5046926;28;20143;-85
2022/02/17 02:01:12;;;;;;;7.97;6.85;;;9.30;96.70;;;;;;5047828;28;20040;-86
2022/02/17 02:03:42;;;;;;;9.60;6.47;;;9.20;96.70;;;;;;5063054;28;20053;-85
2022/02/17 02:06:15;;;;;;;9.70;6.72;;;9.20;96.70;;;;;;5047207;28;20487;-84
2022/02/17 02:08:55;;;;;;;9.60;7.60;;;9.20;96.70;;;;;;5077917;28;20044;-84
2022/02/17 02:11:24;;;;;;;10.20;6.60;;;9.20;96.70;;;;;;5061243;28;20055;-85
2022/02/17 02:14:00;;;;;;;9.77;6.90;;;9.30;96.70;;;;;;5048196;28;20048;-84
2022/02/17 02:16:34;;;;;;;10.45;7.18;;;9.30;96.70;;;;;;5046093;28;20115;-85
2022/02/17 02:19:03;;;;;;;8.63;7.00;;;9.30;96.70;;;;;;5061779;28;20068;-84
2022/02/17 02:21:33;;;;;;;10.57;7.43;;;9.30;96.70;;;;;;5061010;28;20045;-85
2022/02/17 02:24:02;;;;;;;8.93;7.25;;;9.30;96.70;;;;;;5064116;28;20064;-84
2022/02/17 02:26:30;;;;;;;8.43;6.95;;;9.30;96.70;;;;;;5060716;28;20411;-84
2022/02/17 02:29:00;;;;;;;8.00;7.13;;;9.20;96.70;;;;;;5044738;28;20072;-85
2022/02/17 02:31:28;;;;;;;10.68;7.82;;;9.20;96.70;;;;;;5061754;28;20118;-84
2022/02/17 02:33:56;;;;;;;8.63;6.70;;;9.20;96.70;;;;;;5061479;28;20497;-84
2022/02/17 02:36:25;;;;;;;7.68;6.78;;;9.20;96.70;;;;;;5045155;28;20036;-85
2022/02/17 02:39:00;;;;;;;8.38;6.95;;;9.20;96.70;;;;;;5061560;28;20160;-84
2022/02/17 02:41:50;;;;;;;8.73;6.70;;;9.30;96.70;;;;;;5049578;28;20044;-85
2022/02/17 02:44:18;;;;;;;8.73;7.00;;;9.30;96.70;;;;;;5063309;28;20473;-84
2022/02/17 02:46:58;;;;;;;9.25;7.07;;;9.30;96.70;;;;;;5061543;28;20139;-84
2022/02/17 02:49:26;;;;;;;10.65;6.80;;;9.40;96.70;;;;;;5061632;28;20560;-85
2022/02/17 02:51:55;;;;;;;9.57;6.85;;;9.30;96.70;;;;;;5062325;28;20060;-85
2022/02/17 02:54:54;;;;;;;9.88;7.47;;;9.30;96.70;;;;;;5020874;28;20228;-85
2022/02/17 02:57:22;;;;;;;9.23;6.57;;;9.30;96.70;;;;;;5020853;28;20807;-85
2022/02/17 02:59:50;;;;;;;9.07;7.78;;;9.30;96.70;;;;;;5020163;28;20049;-85
2022/02/17 03:02:23;;;;;;;7.75;6.82;;;9.40;96.70;;;;;;5019508;28;20068;-85
2022/02/17 03:04:51;;;;;;;9.75;7.40;;;9.50;96.70;;;;;;5019153;28;20115;-85
2022/02/17 03:07:20;;;;;;;8.30;6.35;;;9.40;96.70;;;;;;5009003;28;20044;-86
2022/02/17 03:09:50;;;;;;;7.60;6.57;;;9.40;96.70;;;;;;5004088;28;20053;-85
2022/02/17 03:12:19;;;;;;;9.07;5.65;;;9.40;96.70;;;;;;5001555;28;20050;-85
2022/02/17 03:14:49;;;;;;;7.95;6.22;;;9.50;96.70;;;;;;5019753;28;20057;-84
2022/02/17 03:17:21;;;;;;;7.38;5.53;;;9.40;96.70;;;;;;5004363;28;20137;-84
2022/02/17 03:19:52;;;;;;;7.43;5.72;;;9.40;96.70;;;;;;5027949;28;20084;-85
2022/02/17 03:22:21;;;;;;;7.13;5.25;;;9.40;96.70;;;;;;5019677;28;20037;-85
2022/02/17 03:24:50;;;;;;;8.52;5.40;;;9.30;96.70;;;;;;5017245;28;20632;-84
2022/02/17 03:27:20;;;;;;;7.40;5.32;;;9.30;96.70;;;;;;5019188;28;20114;-85
2022/02/17 03:29:51;;;;;;;6.93;5.60;;;9.30;96.70;;;;;;5020521;28;20045;-85
2022/02/17 03:32:20;;;;;;;8.70;5.72;;;9.30;96.70;;;;;;5068970;28;20260;-85
2022/02/17 03:34:49;;;;;;;7.85;5.68;;;9.20;96.70;;;;;;5045303;28;20434;-85
2022/02/17 03:37:28;;;;;;;6.75;5.35;;;9.20;96.70;;;;;;5048265;28;20173;-85
2022/02/17 03:39:57;;;;;;;8.25;5.88;;;9.20;96.70;;;;;;5061937;28;20055;-85
2022/02/17 03:42:37;;;;;;;7.65;5.20;;;9.20;96.70;;;;;;5046717;28;20048;-84
2022/02/17 03:45:07;;;;;;;8.55;6.15;;;9.30;96.70;;;;;;5039581;28;20399;-85
2022/02/17 03:47:35;;;;;;;8.40;6.03;;;9.20;96.70;;;;;;5058615;28;20050;-85
2022/02/17 03:50:09;;;;;;;9.77;7.07;;;9.20;96.70;;;;;;5059837;28;20043;-84
2022/02/17 03:52:38;;;;;;;9.88;7.25;;;9.10;96.70;;;;;;5043379;28;20098;-85
2022/02/17 03:55:29;;;;;;;11.93;7.95;;;9.10;96.70;;;;;;5075918;28;20556;-84
2022/02/17 03:58:00;;;;;;;9.57;6.75;;;9.10;96.70;;;;;;5078515;28;20056;-85
2022/02/17 04:00:33;;;;;;;9.63;8.57;;;9.10;96.70;;;;;;5061911;28;20510;-86
2022/02/17 04:03:03;;;;;;;7.95;6.95;;;9.20;96.70;;;;;;5045028;28;20647;-86
2022/02/17 04:05:34;;;;;;;10.77;7.35;;;9.20;96.70;;;;;;5060429;28;20143;-86
2022/02/17 04:08:07;;;;;;;9.57;7.65;;;9.10;96.70;;;;;;5047121;28;20513;-86
2022/02/17 04:10:36;;;;;;;10.43;7.45;;;9.00;96.70;;;;;;5064288;28;20518;-86
2022/02/17 04:13:13;;;;;;;8.95;7.40;;;9.00;96.70;;;;;;5066980;28;20350;-85
2022/02/17 04:15:45;;;;;;;9.70;6.82;;;9.10;96.70;;;;;;5065183;28;20052;-86
2022/02/17 04:18:34;;;;;;;10.88;7.40;;;9.10;96.70;;;;;;5062728;28;20061;-86
2022/02/17 04:21:08;;;;;;;9.50;7.55;;;9.10;96.70;;;;;;5063829;28;20131;-86
2022/02/17 04:23:52;;;;;;;10.35;7.32;;;9.20;96.70;;;;;;5063925;28;20043;-86
2022/02/17 04:26:25;;;;;;;9.95;7.97;;;9.20;96.70;;;;;;5049258;28;20048;-86
2022/02/17 04:29:11;;;;;;;8.63;7.72;;;9.20;96.70;;;;;;5064762;28;20061;-86
2022/02/17 04:31:50;;;;;;;9.80;7.03;;;9.20;96.70;;;;;;5061005;28;20071;-86
2022/02/17 04:34:20;;;;;;;9.60;8.30;;;9.10;96.70;;;;;;5063436;28;20127;-85
2022/02/17 04:36:51;;;;;;;8.68;7.47;;;9.10;96.70;;;;;;5065104;28;20052;-86
2022/02/17 04:39:22;;;;;;;8.90;7.10;;;9.10;96.70;;;;;;5048709;28;20036;-86
2022/02/17 04:44:39;;;;;;;9.48;7.20;;;9.20;96.70;;;;;;5061905;28;20047;-86
2022/02/17 04:47:07;;;;;;;9.85;7.18;;;9.20;96.70;;;;;;5060182;28;20080;-86
2022/02/17 04:49:35;;;;;;;8.85;7.10;;;9.20;96.70;;;;;;5065262;28;20037;-86
2022/02/17 04:52:05;;;;;;;7.88;6.63;;;9.20;96.70;;;;;;5049246;28;20109;-86
2022/02/17 04:54:33;;;;;;;11.63;8.27;;;9.20;96.70;;;;;;5062912;28;20047;-86
2022/02/17 04:57:03;;;;;;;9.20;7.95;;;9.20;96.70;;;;;;5064114;28;20114;-85
2022/02/17 04:59:36;;;;;;;11.48;7.60;;;9.10;96.70;;;;;;5047279;28;20569;-85
2022/02/17 05:02:06;;;;;;;8.80;7.75;;;9.10;96.70;;;;;;5065212;28;20048;-86
2022/02/17 05:04:48;;;;;;;9.95;6.93;;;9.10;96.70;;;;;;5049696;28;20059;-86
2022/02/17 05:07:19;;;;;;;10.63;6.43;;;9.10;96.70;;;;;;5064862;28;20079;-86
2022/02/17 05:09:48;;;;;;;10.02;7.03;;;9.20;96.70;;;;;;5059286;28;20379;-86
2022/02/17 05:12:21;;;;;;;10.35;7.03;;;9.10;96.70;;;;;;5065081;28;20101;-85
2022/02/17 05:14:50;;;;;;;8.85;6.35;;;9.10;96.70;;;;;;5065055;28;20098;-86
2022/02/17 05:17:23;;;;;;;8.38;6.95;;;9.20;96.70;;;;;;5063609;28;20050;-86
2022/02/17 05:19:53;;;;;;;12.02;7.50;;;9.20;96.70;;;;;;5063482;28;20386;-86
2022/02/17 05:22:30;;;;;;;11.43;7.63;;;9.10;96.70;;;;;;5047793;28;20090;-86
2022/02/17 05:25:14;;;;;;;7.70;6.55;;;9.10;96.70;;;;;;5063294;28;20052;-86
2022/02/17 05:28:16;;;;;;;8.70;6.95;;;9.10;96.70;;;;;;5057840;28;20064;-86
2022/02/17 05:31:07;;;;;;;8.32;6.40;;;9.10;96.70;;;;;;5064015;28;20143;-86
2022/02/17 05:33:49;;;;;;;9.45;7.50;;;9.20;96.70;;;;;;5060522;28;20045;-86
2022/02/17 05:36:44;;;;;;;8.18;6.85;;;9.20;96.70;;;;;;5054771;28;20048;-86
2022/02/17 05:39:29;;;;;;;9.05;6.97;;;9.20;96.70;;;;;;5048896;28;20486;-86
2022/02/17 05:42:00;;;;;;;10.32;8.13;;;9.20;96.70;;;;;;5047780;28;20111;-86
2022/02/17 05:44:29;;;;;;;10.25;7.60;;;9.30;96.70;;;;;;5048572;28;20040;-87
2022/02/17 05:46:57;;;;;;;9.02;7.57;;;9.30;96.70;;;;;;5045950;28;20048;-86
2022/02/17 05:49:27;;;;;;;9.50;7.60;;;9.20;96.70;;;;;;5067249;28;20528;-86
2022/02/17 05:51:55;;;;;;;11.60;7.75;;;9.30;96.70;;;;;;5042898;28;20068;-87
2022/02/17 05:54:23;;;;;;;9.30;7.50;;;9.30;96.70;;;;;;5065120;28;20052;-86
2022/02/17 05:56:52;;;;;;;9.60;6.82;;;9.30;96.70;;;;;;5046520;28;20047;-86
2022/02/17 05:59:20;;;;;;;8.85;7.55;;;9.20;96.70;;;;;;5065687;28;20559;-86
2022/02/17 06:01:48;;;;;;;9.73;8.10;;;9.20;96.70;;;;;;5062746;28;20044;-86
2022/02/17 06:04:16;;;;;;;12.90;8.30;;;9.20;96.70;;;;;;5066018;28;20056;-86
2022/02/17 06:06:46;;;;;;;11.75;8.00;;;9.20;96.70;;;;;;5062109;28;20080;-86
2022/02/17 06:09:14;;;;;;;9.32;7.32;;;9.20;96.70;;;;;;5046462;28;20612;-86
2022/02/17 06:11:43;;;;;;;8.40;7.47;;;9.20;96.70;;;;;;5061078;28;20094;-85
2022/02/17 06:14:11;;;;;;;8.60;7.13;;;9.20;96.70;;;;;;5048645;28;20056;-84
2022/02/17 06:16:39;;;;;;;11.18;7.55;;;9.20;96.70;;;;;;5063224;28;20032;-84
2022/02/17 06:19:08;;;;;;;8.80;7.05;;;9.20;96.70;;;;;;5045488;28;20041;-84
2022/02/17 06:21:38;;;;;;;9.00;7.20;;;9.20;96.70;;;;;;5059868;28;20114;-84
2022/02/17 06:24:08;;;;;;;9.40;7.93;;;9.20;96.70;;;;;;5080407;28;20593;-84
2022/02/17 06:26:36;;;;;;;8.82;6.70;;;9.20;96.70;;;;;;5062480;28;20044;-84
2022/02/17 06:29:04;;;;;;;9.25;7.80;;;9.20;96.70;;;;;;5064176;28;20052;-84
2022/02/17 06:31:32;;;;;;;8.07;7.28;;;9.20;96.70;;;;;;5059997;28;20086;-84
2022/02/17 06:34:01;;;;;;;8.85;6.90;;;9.20;96.70;;;;;;5062617;28;20060;-84
2022/02/17 06:36:29;;;;;;;8.35;7.10;;;9.20;96.70;;;;;;5061904;28;20037;-84
2022/02/17 06:38:59;;;;;;;7.95;6.53;;;9.10;96.70;;;;;;5061363;28;20056;-83
2022/02/17 06:41:30;;;;;;;10.00;7.20;;;9.10;96.70;;;;;;5063002;28;20043;-84
2022/02/17 06:44:02;;;;;;;8.07;6.55;;;9.10;96.70;;;;;;5061182;28;20111;-83
2022/02/17 06:46:30;;;;;;;9.07;7.53;;;9.10;96.70;;;;;;5060357;28;20134;-84
2022/02/17 06:48:58;;;;;;;7.75;6.85;;;9.20;96.70;;;;;;5061297;28;20036;-84
2022/02/17 06:51:27;;;;;;;8.60;6.50;;;9.20;96.70;;;;;;5062103;28;20110;-84
2022/02/17 06:53:55;;;;;;;10.50;7.00;;;9.20;96.70;;;;;;5062001;28;20623;-85
2022/02/17 06:56:24;;;;;;;7.25;6.45;;;9.20;96.70;;;;;;5063280;28;20406;-84
2022/02/17 06:58:53;;;;;;;9.18;6.25;;;9.30;96.70;;;;;;5065665;28;20116;-85
2022/02/17 07:01:23;;;;;;;8.60;6.50;;;9.30;96.70;;;;;;5058602;28;20047;-85
2022/02/17 07:03:52;;;;;;;8.23;6.63;;;9.30;96.70;;;;;;5061724;28;20047;-84
2022/02/17 07:06:23;;;;;;;11.45;7.10;;;9.40;96.70;;;;;;5060946;28;20044;-84
2022/02/17 07:08:52;;;;;;;9.45;6.80;;;9.40;96.70;;;;;;5062197;28;20048;-83
2022/02/17 07:11:20;;;;;;;11.55;8.00;;;9.40;96.70;;;;;;5063987;28;20037;-83
2022/02/17 07:13:49;;;;;;;9.77;7.30;;;9.40;96.70;;;;;;5061458;28;20040;-87
2022/02/17 07:16:19;;;;;;;8.70;7.78;;;9.40;96.70;;;;;;5042201;28;20079;-87
2022/02/17 07:18:47;;;;;;;10.98;7.72;;;9.40;96.70;;;;;;5056756;28;20077;-87
2022/02/17 07:21:17;;;;;;;9.85;7.90;;;9.30;96.70;;;;;;5045095;28;20052;-86
2022/02/17 07:23:45;;;;;;;10.07;6.78;;;9.30;96.70;;;;;;5060737;28;20347;-86
2022/02/17 07:26:13;;;;;;;10.38;7.70;;;9.30;96.70;;;;;;5064011;28;20060;-83
2022/02/17 07:28:45;;;;;;;8.23;7.07;;;9.40;96.70;;;;;;5062544;28;20040;-84
2022/02/17 07:31:14;;;;;;;11.02;7.45;;;9.40;96.70;;;;;;5060056;28;20060;-86
2022/02/17 07:33:43;;;;;;;7.72;6.70;;;9.40;96.70;;;;;;5060882;28;20114;-82
2022/02/17 07:36:12;;;;;;;12.20;7.15;;;9.50;96.70;;;;;;5062559;28;20357;-84
2022/02/17 07:38:48;;;;;;;9.18;6.93;;;9.50;96.70;;;;;;5068234;28;20056;-84
2022/02/17 07:41:16;;;;;;;9.77;7.40;;;9.60;96.70;;;;;;5063383;28;20083;-86
2022/02/17 07:43:45;;;;;;;11.57;7.53;;;9.50;96.70;;;;;;5042189;28;20045;-85
2022/02/17 07:46:16;;;;;;;12.02;7.80;;;9.50;96.70;;;;;;5043693;28;20059;-86
2022/02/17 07:48:46;;;;;;;9.70;7.07;;;9.60;96.70;;;;;;5047015;28;20036;-85
2022/02/17 07:51:16;;;;;;;11.65;7.72;;;9.60;96.70;;;;;;5076252;28;20147;-86
2022/02/17 07:53:47;;;;;;;9.60;7.00;;;9.60;96.70;;;;;;5061900;28;20048;-85
2022/02/17 07:56:16;;;;;;;10.55;7.13;;;9.70;96.70;;;;;;5060393;28;20049;-87
2022/02/17 07:58:44;;;;;;;10.00;6.72;;;9.70;96.70;;;;;;5061211;28;20055;-85
2022/02/17 08:01:15;;;;;;;9.60;6.32;;;9.60;96.70;;;;;;5046688;28;20048;-87
2022/02/17 08:03:48;;;;;;;11.05;7.38;;;9.70;96.70;;;;;;5063894;28;20040;-86
2022/02/17 08:06:17;;;;;;;7.82;6.70;;;9.80;96.70;;;;;;5078392;28;20044;-84
2022/02/17 08:09:01;;;;;;;9.07;6.50;;;9.80;96.70;;;;;;5062815;28;20052;-84
2022/02/17 08:11:29;;;;;;;8.95;6.22;;;9.80;96.70;;;;;;5060408;28;20221;-85
2022/02/17 08:13:57;;;;;;;10.93;6.57;;;9.80;96.70;;;;;;5060171;28;20049;-84
2022/02/17 08:16:26;;;;;;;11.68;6.88;;;9.90;96.70;;;;;;5060293;28;20714;-86
2022/02/17 08:18:56;;;;;;;10.20;6.75;;;9.90;96.70;;;;;;5062910;28;20052;-84
2022/02/17 08:21:42;;;;;;;9.90;6.88;;;9.90;96.70;;;;;;5057270;28;20140;-86
2022/02/17 08:24:11;;;;;;;9.25;6.90;;;9.90;96.70;;;;;;5063680;28;20041;-89
2022/02/17 08:26:41;;;;;;;11.73;7.07;;;9.80;96.70;;;;;;5060260;28;20398;-88
2022/02/17 08:29:10;;;;;;;11.38;7.70;;;9.80;96.70;;;;;;5062412;28;20404;-85
2022/02/17 08:31:38;;;;;;;10.38;7.25;;;9.80;96.70;;;;;;5061867;28;20045;-83
2022/02/17 08:34:08;;;;;;;10.95;7.03;;;9.70;96.70;;;;;;5060165;28;20056;-83
2022/02/17 08:36:36;;;;;;;11.45;8.10;;;9.80;96.70;;;;;;5046353;28;20040;-86
2022/02/17 08:39:06;;;;;;;11.70;7.65;;;9.90;96.70;;;;;;5053054;28;20060;-83
2022/02/17 08:41:36;;;;;;;13.07;7.90;;;9.90;96.70;;;;;;5040443;28;20148;-83
2022/02/17 08:44:05;;;;;;;11.23;7.85;;;10.10;96.70;;;;;;5059537;28;20137;-84
2022/02/17 08:46:33;;;;;;;11.95;8.20;;;10.10;96.70;;;;;;5060438;28;20044;-84
2022/02/17 08:49:06;;;;;;;10.90;7.93;;;10.20;96.70;;;;;;5060090;28;20119;-84
2022/02/17 08:51:37;;;;;;;13.05;7.47;;;10.30;96.70;;;;;;5044839;28;20049;-84
2022/02/17 08:54:07;;;;;;;13.10;7.40;;;10.30;96.70;;;;;;5058103;28;20056;-84
2022/02/17 08:56:35;;;;;;;13.30;8.85;;;10.30;96.70;;;;;;5069922;28;20267;-84
2022/02/17 08:59:03;;;;;;;13.05;8.20;;;10.40;96.70;;;;;;5062675;28;20049;-84
2022/02/17 09:01:33;;;;;;;16.85;9.13;;;10.50;96.70;;;;;;5063183;28;20086;-84
2022/02/17 09:04:01;;;;;;;12.02;7.50;;;10.50;96.70;;;;;;5047509;28;20072;-85
2022/02/17 09:06:31;;;;;;;12.95;7.55;;;10.60;96.70;;;;;;5062225;28;20052;-83
2022/02/17 09:09:02;;;;;;;13.18;7.38;;;10.50;96.70;;;;;;5047889;28;20174;-84
2022/02/17 09:11:32;;;;;;;10.70;7.28;;;10.50;96.70;;;;;;5049822;28;20055;-84
2022/02/17 09:14:05;;;;;;;7.93;6.50;;;10.50;96.70;;;;;;5062660;28;20033;-83
2022/02/17 09:16:34;;;;;;;15.07;7.35;;;10.60;96.70;;;;;;5060483;28;20068;-84
2022/02/17 09:19:03;;;;;;;8.68;6.82;;;10.60;96.70;;;;;;5064030;28;20413;-82
2022/02/17 09:21:33;;;;;;;7.55;6.03;;;10.70;96.70;;;;;;5065436;28;20045;-83
2022/02/17 09:24:03;;;;;;;8.43;5.43;;;10.70;96.70;;;;;;5064179;28;20055;-84
2022/02/17 09:26:36;;;;;;;8.93;6.72;;;10.70;96.70;;;;;;5064541;28;20367;-84
2022/02/17 09:29:05;;;;;;;7.40;6.13;;;10.70;96.70;;;;;;5064483;28;20501;-84
2022/02/17 09:31:53;;;;;;;6.95;5.32;;;10.80;96.70;;;;;;5058435;28;20048;-85
2022/02/17 09:34:21;;;;;;;9.13;6.47;;;10.80;96.70;;;;;;5061462;28;20561;-84
2022/02/17 09:36:49;;;;;;;8.10;5.60;;;10.90;96.70;;;;;;5064721;28;20054;-84
2022/02/17 09:39:19;;;;;;;6.15;5.32;;;10.90;96.70;;;;;;5047594;28;20041;-83
2022/02/17 09:41:47;;;;;;;8.57;4.72;;;11.00;96.70;;;;;;5061875;28;20044;-83
2022/02/17 09:44:19;;;;;;;5.35;3.90;;;11.00;96.70;;;;;;5060543;28;20742;-83
2022/02/17 09:46:48;;;;;;;6.80;3.92;;;11.00;96.70;;;;;;5056564;28;20517;-82
2022/02/17 09:49:17;;;;;;;5.93;4.30;;;11.10;96.70;;;;;;5044833;28;20044;-84
2022/02/17 09:51:45;;;;;;;6.15;4.15;;;11.30;96.70;;;;;;5062582;28;20056;-84
2022/02/17 09:54:14;;;;;;;9.50;4.15;;;11.30;96.70;;;;;;5061418;28;20044;-83
2022/02/17 09:56:43;;;;;;;7.95;3.35;;;11.40;96.70;;;;;;5061274;28;20040;-83
2022/02/17 09:59:15;;;;;;;6.20;3.05;;;11.40;96.70;;;;;;5047558;28;20067;-84
2022/02/17 10:01:53;;;;;;;6.88;3.22;;;11.50;96.70;;;;;;5046633;28;20046;-83
2022/02/17 10:04:24;;;;;;;7.95;3.60;;;11.60;96.70;;;;;;5045482;28;20855;-83
2022/02/17 10:06:55;;;;;;;6.57;3.17;;;11.60;96.70;;;;;;5060562;28;20506;-83
2022/02/17 10:09:35;;;;;;;9.32;3.88;;;11.60;96.70;;;;;;5063706;28;20068;-83
2022/02/17 10:12:05;;;;;;;5.15;3.60;;;11.70;96.70;;;;;;5062516;28;20537;-82
2022/02/17 10:14:35;;;;;;;7.28;3.67;;;11.70;96.70;;;;;;5063695;28;20033;-84
2022/02/17 10:17:06;;;;;;;7.85;3.53;;;11.80;96.70;;;;;;5045436;28;20040;-83
2022/02/17 10:19:37;;;;;;;5.53;3.10;;;11.90;96.70;;;;;;5046394;28;20044;-85
2022/02/17 10:22:07;;;;;;;11.10;4.35;;;12.00;96.70;;;;;;5064232;28;20169;-84
2022/02/17 10:24:39;;;;;;;5.30;3.42;;;12.00;96.70;;;;;;5074496;28;20045;-83
2022/02/17 10:27:12;;;;;;;6.20;3.17;;;12.10;96.70;;;;;;5047317;28;20099;-84
2022/02/17 10:29:58;;;;;;;5.30;3.03;;;12.20;96.70;;;;;;5062128;28;20043;-84
2022/02/17 10:32:26;;;;;;;5.32;3.03;;;12.30;96.70;;;;;;5061351;28;20044;-84
2022/02/17 10:35:09;;;;;;;5.85;3.20;;;12.30;96.70;;;;;;5062507;28;20516;-83
2022/02/17 10:37:46;;;;;;;5.45;3.13;;;12.40;96.70;;;;;;5079673;28;20095;-84
2022/02/17 10:40:16;;;;;;;4.78;3.08;;;12.40;96.70;;;;;;5063045;28;20092;-85
2022/02/17 10:42:57;;;;;;;5.63;2.78;;;12.50;96.70;;;;;;5063445;28;20044;-82
2022/02/17 10:45:37;;;;;;;6.78;3.00;;;12.40;96.70;;;;;;5062002;28;20679;-84
2022/02/17 10:48:15;;;;;;;6.68;3.25;;;12.50;96.70;;;;;;5047669;28;20072;-84
2022/02/17 10:50:44;;;;;;;10.18;3.05;;;12.60;96.70;;;;;;5041384;28;20048;-84
2022/02/17 10:53:18;;;;;;;5.63;2.88;;;12.70;96.70;;;;;;5063767;28;20048;-84
2022/02/17 10:55:55;;;;;;;4.45;2.90;;;12.80;96.70;;;;;;5043869;28;20156;-86
2022/02/17 10:58:27;;;;;;;;;;;12.90;96.70;;;;;;5060098;28;20054;-84
2022/02/17 11:00:57;;;;;;;4.43;2.40;;;12.90;96.70;;;;;;5044722;28;19971;-85
2022/02/17 11:03:26;;;;;;;7.45;3.05;;;12.90;96.70;;;;;;5045391;28;20044;-85
2022/02/17 11:06:07;;;;;;;5.53;2.70;;;13.00;96.70;;;;;;5061471;28;20143;-87
2022/02/17 11:08:37;;;;;;;6.00;2.78;;;13.20;96.70;;;;;;5045624;28;20718;-85
2022/02/17 11:11:06;;;;;;;9.38;2.85;;;13.30;96.70;;;;;;5062265;28;20040;-84
2022/02/17 11:13:36;;;;;;;6.13;2.78;;;13.40;96.70;;;;;;5044471;28;20130;-85
2022/02/17 11:16:10;;;;;;;8.07;3.55;;;13.60;96.70;;;;;;5061620;28;20055;-85
2022/02/17 11:18:40;;;;;;;8.48;3.38;;;13.80;96.70;;;;;;5061181;28;20032;-86
2022/02/17 11:21:15;;;;;;;7.85;3.63;;;13.90;96.70;;;;;;5062370;28;20045;-86
2022/02/17 11:23:45;;;;;;;7.22;3.50;;;14.00;96.70;;;;;;5059468;28;20051;-85
2022/02/17 11:26:22;;;;;;;11.13;4.28;;;13.90;96.70;;;;;;5063595;28;20501;-86
2022/02/17 11:29:18;;;;;;;6.32;4.20;;;13.90;96.70;;;;;;5043591;28;20044;-85
2022/02/17 11:31:57;;;;;;;8.45;4.00;;;13.80;96.70;;;;;;5045978;28;20063;-85
2022/02/17 11:34:36;;;;;;;8.77;4.38;;;13.70;96.70;;;;;;5062068;28;20068;-85
2022/02/17 11:37:32;;;;;;;8.45;4.15;;;13.80;96.70;;;;;;5061682;28;20044;-85
2022/02/17 11:40:06;;;;;;;10.27;4.32;;;13.90;96.70;;;;;;5044753;28;20468;-85
2022/02/17 11:42:36;;;;;;;9.82;5.18;;;14.00;96.70;;;;;;5057749;28;20050;-84
2022/02/17 11:45:10;;;;;;;7.68;4.97;;;14.10;96.70;;;;;;5078530;28;20068;-85
2022/02/17 11:47:58;;;;;;;7.72;4.32;;;14.00;96.70;;;;;;5042929;28;20583;-84
2022/02/17 11:50:36;;;;;;;12.57;4.75;;;14.10;96.70;;;;;;5042027;28;20127;-84
2022/02/17 11:53:28;;;;;;;9.00;4.63;;;14.40;96.70;;;;;;5061189;28;20048;-85
2022/02/17 11:56:34;;;;;;;8.50;4.70;;;14.60;96.70;;;;;;5041909;28;20043;-83
2022/02/17 11:59:24;;;;;;;9.65;4.50;;;14.90;96.70;;;;;;5045901;28;20060;-86
2022/02/17 12:01:55;;;;;;;8.73;4.50;;;15.10;96.70;;;;;;5059480;28;20510;-86
2022/02/17 12:04:43;;;;;;;7.63;4.28;;;15.30;96.70;;;;;;5058919;28;20127;-85
2022/02/17 12:07:34;;;;;;;9.00;4.95;;;15.30;96.70;;;;;;5042876;28;20040;-85
2022/02/17 12:10:31;;;;;;;10.73;5.32;;;15.30;96.70;;;;;;5060469;28;20048;-85
2022/02/17 12:13:01;;;;;;;8.43;4.53;;;15.30;96.70;;;;;;5060504;28;20071;-84
2022/02/17 12:50:53;;;;;;;7.57;4.20;;;15.40;96.70;;;;;;5070609;27;20619;-81
2022/02/17 12:53:22;;;;;;;8.13;4.75;;;15.40;96.70;;;;;;5053557;28;20049;-81
2022/02/17 12:55:52;;;;;;;9.35;4.07;;;15.30;96.70;;;;;;5057382;28;20484;-81
2022/02/17 12:58:27;;;;;;;8.13;4.68;;;15.30;96.70;;;;;;5056775;28;20064;-82
2022/02/17 13:00:56;;;;;;;9.98;5.03;;;15.40;96.70;;;;;;5055930;28;20064;-82
2022/02/17 13:03:44;;;;;;;13.23;5.72;;;15.40;96.70;;;;;;5057985;28;20032;-82
2022/02/17 13:06:17;;;;;;;13.73;5.88;;;15.50;96.70;;;;;;5056918;28;20048;-82
2022/02/17 13:08:51;;;;;;;7.63;3.90;;;15.50;96.70;;;;;;5056282;28;20118;-82
2022/02/17 13:11:21;;;;;;;8.40;3.58;;;15.50;96.70;;;;;;5057815;28;20139;-82
2022/02/17 13:13:59;;;;;;;6.97;3.90;;;15.50;96.70;;;;;;5058452;28;20233;-83
2022/02/17 13:16:28;;;;;;;6.32;3.40;;;15.50;96.70;;;;;;5059201;28;20037;-86
2022/02/17 13:18:57;;;;;;;7.03;3.13;;;15.50;96.70;;;;;;5056955;28;20507;-81
2022/02/17 13:21:28;;;;;;;6.57;2.92;;;15.60;96.70;;;;;;5055351;28;20560;-81
2022/02/17 13:24:09;;;;;;;8.18;3.80;;;15.60;96.70;;;;;;5057649;28;20832;-81
2022/02/17 13:26:39;;;;;;;6.30;3.88;;;15.60;96.70;;;;;;5053433;28;20060;-82
2022/02/17 13:29:12;;;;;;;7.88;3.70;;;15.50;96.70;;;;;;5053380;28;20094;-80
2022/02/17 13:31:41;;;;;;;5.30;3.85;;;15.50;96.70;;;;;;5057581;28;20047;-80
2022/02/17 13:34:17;;;;;;;4.25;2.17;;;15.50;96.70;;;;;;5039391;28;20445;-79
2022/02/17 13:36:47;;;;;;;3.97;1.75;;;15.40;96.70;;;;;;5056035;28;20065;-80
2022/02/17 13:39:19;;;;;;;5.00;2.13;;;15.50;96.70;;;;;;5055794;28;20056;-79
2022/02/17 13:42:05;;;;;;;5.25;1.90;;;15.50;96.70;;;;;;5058095;28;20049;-80
2022/02/17 13:44:37;;;;;;;3.38;1.63;;;15.50;96.70;;;;;;5058297;28;20045;-80
2022/02/17 13:47:09;;;;;;;5.18;1.55;;;15.50;96.70;;;;;;5056508;28;20607;-80
2022/02/17 13:49:38;;;;;;;8.93;2.55;;;15.50;96.70;;;;;;5051829;28;20148;-80
2022/02/17 13:52:18;;;;;;;4.95;2.20;;;15.50;96.70;;;;;;5055141;28;20064;-80
2022/02/17 13:54:51;;;;;;;6.32;2.05;;;15.50;96.70;;;;;;5053780;28;20049;-80